createdAt,value
2023-04-17T00:02:01.559Z,8.80
2023-04-17T00:06:04.249Z,8.97
2023-04-17T00:10:10.481Z,8.89
2023-04-17T00:14:12.462Z,8.69
2023-04-17T00:18:14.572Z,8.71
2023-04-17T00:22:16.614Z,8.69
2023-04-17T00:26:19.663Z,8.72
2023-04-17T00:30:21.745Z,8.77
2023-04-17T00:34:23.761Z,8.75
2023-04-17T00:38:26.227Z,8.68
2023-04-17T00:42:28.421Z,8.67
2023-04-17T00:46:31.379Z,8.82
2023-04-17T00:50:33.605Z,8.64
2023-04-17T00:54:35.985Z,8.66
2023-04-17T00:58:38.235Z,8.67
2023-04-17T01:02:41.004Z,8.73
2023-04-17T01:06:43.235Z,8.84
2023-04-17T01:10:45.914Z,8.74
2023-04-17T01:14:50.867Z,8.69
2023-04-17T01:18:52.961Z,8.90
2023-04-17T01:22:54.927Z,8.77
2023-04-17T01:26:57.065Z,8.81
2023-04-17T01:30:59.302Z,8.89
2023-04-17T01:35:02.186Z,8.81
2023-04-17T01:39:04.357Z,8.84
2023-04-17T01:43:07.030Z,8.88
2023-04-17T01:47:09.113Z,8.83
2023-04-17T01:51:11.248Z,8.83
2023-04-17T01:55:13.357Z,8.81
2023-04-17T01:59:15.796Z,8.83
2023-04-17T02:03:18.296Z,8.85
2023-04-17T02:07:20.699Z,8.81
2023-04-17T02:11:22.748Z,8.75
2023-04-17T02:15:26.245Z,8.86
2023-04-17T02:19:28.246Z,8.74
2023-04-17T02:23:30.250Z,8.68
2023-04-17T02:27:32.618Z,8.63
2023-04-17T02:31:34.664Z,8.65
2023-04-17T02:35:36.855Z,8.58
2023-04-17T02:39:39.139Z,8.40
2023-04-17T02:43:41.188Z,8.27
2023-04-17T02:47:45.095Z,8.14
2023-04-17T02:51:47.732Z,8.09
2023-04-17T02:55:49.790Z,7.89
2023-04-17T02:59:54.231Z,7.69
2023-04-17T03:03:56.896Z,7.65
2023-04-17T03:07:59.638Z,7.55
2023-04-17T03:12:06.136Z,7.26
2023-04-17T03:16:08.563Z,7.27
2023-04-17T03:20:12.884Z,7.32
2023-04-17T03:24:14.877Z,7.66
2023-04-17T03:28:16.944Z,7.58
2023-04-17T03:32:19.597Z,7.59
2023-04-17T03:36:21.641Z,7.72
2023-04-17T03:40:23.961Z,7.89
2023-04-17T03:44:26.044Z,7.99
2023-04-17T03:48:28.493Z,7.98
2023-04-17T03:52:30.688Z,8.04
2023-04-17T03:56:34.194Z,7.91
2023-04-17T04:00:37.440Z,8.16
2023-04-17T04:04:43.649Z,8.06
2023-04-17T04:08:49.638Z,8.19
2023-04-17T04:12:52.273Z,8.27
2023-04-17T04:16:54.934Z,8.19
2023-04-17T04:20:57.026Z,8.26
2023-04-17T04:25:04.211Z,8.47
2023-04-17T04:29:25.579Z,8.53
2023-04-17T04:33:35.881Z,8.30
2023-04-17T04:37:38.298Z,8.35
2023-04-17T04:41:46.185Z,8.42
2023-04-17T04:45:49.417Z,8.49
2023-04-17T04:49:52.168Z,8.52
2023-04-17T04:53:56.643Z,8.60
2023-04-17T04:57:59.463Z,8.67
2023-04-17T05:02:02.536Z,8.75
2023-04-17T05:06:04.741Z,8.86
2023-04-17T05:10:14.433Z,8.98
2023-04-17T05:14:22.704Z,9.28
2023-04-17T05:18:25.041Z,8.99
2023-04-17T05:22:27.589Z,9.16
2023-04-17T05:26:44.037Z,9.42
2023-04-17T05:30:46.197Z,9.52
2023-04-17T05:34:57.848Z,9.32
2023-04-17T05:39:02.373Z,9.25
2023-04-17T05:43:09.847Z,9.44
2023-04-17T05:47:12.904Z,9.41
2023-04-17T05:51:15.011Z,9.26
2023-04-17T05:55:20.002Z,9.43
2023-04-17T05:59:25.351Z,9.44
2023-04-17T06:03:28.162Z,9.89
2023-04-17T06:07:53.597Z,10.03
2023-04-17T06:11:57.203Z,10.59
2023-04-17T06:15:59.290Z,10.30
2023-04-17T06:20:01.331Z,10.11
2023-04-17T06:24:03.904Z,10.27
2023-04-17T06:28:05.975Z,10.58
2023-04-17T06:32:08.180Z,10.74
2023-04-17T06:36:12.027Z,10.95
2023-04-17T06:40:23.578Z,11.21
2023-04-17T06:44:27.139Z,10.99
2023-04-17T06:48:30.015Z,11.12
2023-04-17T06:52:32.011Z,11.38
2023-04-17T06:56:34.156Z,11.70
2023-04-17T07:00:36.431Z,11.43
2023-04-17T07:04:38.622Z,11.28
2023-04-17T07:08:40.649Z,11.82
2023-04-17T07:12:42.774Z,11.44
2023-04-17T07:16:44.886Z,11.61
2023-04-17T07:20:47.913Z,11.52
2023-04-17T07:24:50.062Z,11.81
2023-04-17T07:28:52.135Z,12.03
2023-04-17T07:32:54.305Z,12.14
2023-04-17T07:36:56.718Z,12.02
2023-04-17T07:40:59.150Z,11.98
2023-04-17T07:45:01.268Z,12.29
2023-04-17T07:49:03.322Z,11.55
2023-04-17T07:53:05.561Z,11.40
2023-04-17T07:57:08.242Z,11.13
2023-04-17T08:01:10.651Z,11.36
2023-04-17T08:05:12.753Z,11.41
2023-04-17T08:09:14.819Z,11.37
2023-04-17T08:13:16.814Z,11.68
2023-04-17T08:17:22.965Z,11.89
2023-04-17T08:21:25.083Z,11.91
2023-04-17T08:25:27.585Z,12.18
2023-04-17T08:29:29.603Z,12.67
2023-04-17T08:33:31.767Z,12.50
2023-04-17T08:37:35.970Z,12.66
2023-04-17T08:42:00.405Z,12.42
2023-04-17T08:46:03.517Z,12.57
2023-04-17T08:50:14.060Z,12.59
2023-04-17T08:54:16.095Z,12.96
2023-04-17T08:58:18.198Z,13.34
2023-04-17T09:02:20.784Z,13.37
2023-04-17T09:06:23.098Z,13.46
2023-04-17T09:10:35.806Z,13.30
2023-04-17T09:14:37.848Z,12.95
2023-04-17T09:18:42.554Z,13.08
2023-04-17T09:22:44.717Z,13.17
2023-04-17T09:26:46.679Z,13.32
2023-04-17T09:30:48.768Z,13.32
2023-04-17T09:34:51.125Z,13.24
2023-04-17T09:38:53.897Z,13.16
2023-04-17T09:43:02.089Z,13.27
2023-04-17T09:47:05.054Z,13.58
2023-04-17T09:51:07.747Z,14.24
2023-04-17T09:55:11.778Z,14.60
2023-04-17T09:59:14.871Z,14.49
2023-04-17T10:03:17.886Z,14.37
2023-04-17T10:07:20.144Z,14.30
2023-04-17T10:11:29.914Z,14.11
2023-04-17T10:15:33.780Z,14.46
2023-04-17T10:19:36.716Z,14.45
2023-04-17T10:23:40.051Z,14.68
2023-04-17T10:27:42.948Z,14.50
2023-04-17T10:32:07.189Z,14.33
2023-04-17T10:36:38.394Z,14.18
2023-04-17T10:40:43.560Z,14.66
2023-04-17T10:44:46.619Z,14.96
2023-04-17T10:48:53.139Z,15.22
2023-04-17T10:52:55.531Z,15.37
2023-04-17T10:56:58.448Z,15.56
2023-04-17T11:01:09.353Z,15.14
2023-04-17T11:05:12.701Z,14.84
2023-04-17T11:09:16.131Z,15.16
2023-04-17T11:13:18.647Z,15.05
2023-04-17T11:17:21.474Z,15.02
2023-04-17T11:21:23.579Z,15.15
2023-04-17T11:25:27.840Z,15.56
2023-04-17T11:29:29.927Z,15.67
2023-04-17T11:33:36.910Z,15.69
2023-04-17T11:38:04.813Z,15.18
2023-04-17T11:42:06.816Z,15.16
2023-04-17T11:46:08.808Z,15.18
2023-04-17T11:50:11.096Z,14.53
2023-04-17T11:54:29.887Z,14.30
2023-04-17T11:58:32.037Z,14.45
2023-04-17T12:02:34.221Z,14.21
2023-04-17T12:06:37.807Z,14.22
2023-04-17T12:10:42.170Z,14.17
2023-04-17T12:14:44.281Z,14.29
2023-04-17T12:18:46.399Z,14.34
2023-04-17T12:22:48.703Z,14.19
2023-04-17T12:26:51.766Z,14.30
2023-04-17T12:30:53.880Z,14.69
2023-04-17T12:34:56.306Z,15.03
2023-04-17T12:38:58.452Z,15.37
2023-04-17T12:43:00.760Z,15.81
2023-04-17T12:47:02.841Z,16.26
2023-04-17T12:51:04.970Z,15.66
2023-04-17T12:55:08.494Z,15.73
2023-04-17T12:59:10.949Z,15.84
2023-04-17T13:03:13.425Z,15.43
2023-04-17T13:07:15.489Z,15.31
2023-04-17T13:11:17.608Z,15.07
2023-04-17T13:15:19.923Z,15.21
2023-04-17T13:19:22.037Z,15.35
2023-04-17T13:23:24.176Z,15.87
2023-04-17T13:27:26.583Z,15.90
2023-04-17T13:31:28.655Z,15.75
2023-04-17T13:35:31.026Z,15.32
2023-04-17T13:39:33.088Z,15.19
2023-04-17T13:43:35.139Z,14.90
2023-04-17T13:47:37.302Z,15.03
2023-04-17T13:51:39.452Z,15.06
2023-04-17T13:55:41.510Z,15.49
2023-04-17T13:59:43.716Z,15.62
2023-04-17T14:03:46.420Z,15.90
2023-04-17T14:07:48.630Z,15.57
2023-04-17T14:11:50.629Z,15.61
2023-04-17T14:15:54.739Z,15.13
2023-04-17T14:19:56.833Z,15.50
2023-04-17T14:23:58.846Z,15.41
2023-04-17T14:28:00.882Z,15.18
2023-04-17T14:32:03.040Z,15.27
2023-04-17T14:36:06.050Z,15.10
2023-04-17T14:40:08.656Z,14.98
2023-04-17T14:44:10.898Z,14.93
2023-04-17T14:48:13.709Z,14.43
2023-04-17T14:52:15.767Z,14.19
2023-04-17T14:56:18.031Z,14.27
2023-04-17T15:00:20.902Z,14.15
2023-04-17T15:04:23.098Z,14.14
2023-04-17T15:08:25.655Z,14.15
2023-04-17T15:12:28.066Z,14.09
2023-04-17T15:16:30.694Z,13.98
2023-04-17T15:20:34.073Z,13.94
2023-04-17T15:24:37.193Z,14.03
2023-04-17T15:28:40.053Z,13.89
2023-04-17T15:32:42.664Z,13.89
2023-04-17T15:36:44.801Z,13.79
2023-04-17T15:40:46.847Z,13.80
2023-04-17T15:44:49.357Z,13.79
2023-04-17T15:49:04.981Z,13.88
2023-04-17T15:53:10.692Z,14.04
2023-04-17T15:57:12.756Z,14.28
2023-04-17T16:01:14.812Z,14.03
2023-04-17T16:05:17.260Z,14.11
2023-04-17T16:09:23.822Z,14.08
2023-04-17T16:13:25.960Z,14.09
2023-04-17T16:17:28.135Z,13.84
2023-04-17T16:21:30.805Z,13.30
2023-04-17T16:25:32.941Z,13.17
2023-04-17T16:29:35.450Z,13.07
2023-04-17T16:33:39.638Z,13.06
2023-04-17T16:37:41.856Z,12.79
2023-04-17T16:41:43.892Z,12.69
2023-04-17T16:45:46.236Z,12.56
2023-04-17T16:49:48.325Z,12.60
2023-04-17T16:53:50.816Z,12.46
2023-04-17T16:57:53.118Z,12.39
2023-04-17T17:01:55.435Z,12.25
2023-04-17T17:05:57.621Z,12.19
2023-04-17T17:10:00.131Z,12.10
2023-04-17T17:14:02.361Z,12.04
2023-04-17T17:18:04.825Z,11.77
2023-04-17T17:22:06.916Z,11.77
2023-04-17T17:26:09.210Z,11.85
2023-04-17T17:30:12.771Z,11.75
2023-04-17T17:38:19.989Z,11.72
2023-04-17T17:42:22.958Z,11.77
2023-04-17T17:46:30.589Z,11.74
2023-04-17T17:50:32.721Z,11.66
2023-04-17T17:54:36.855Z,11.49
2023-04-17T17:58:38.969Z,11.49
2023-04-17T18:02:41.174Z,11.32
2023-04-17T18:06:43.608Z,11.30
2023-04-17T18:10:47.433Z,11.24
2023-04-17T18:14:49.897Z,11.24
2023-04-17T18:18:51.925Z,11.27
2023-04-17T18:22:54.331Z,11.24
2023-04-17T18:26:57.182Z,11.38
2023-04-17T18:30:59.164Z,11.25
2023-04-17T18:35:04.022Z,11.13
2023-04-17T18:39:06.335Z,11.23
2023-04-17T18:43:10.142Z,11.12
2023-04-17T18:47:12.316Z,11.18
2023-04-17T18:51:14.918Z,11.16
2023-04-17T18:55:17.537Z,11.16
2023-04-17T18:59:21.314Z,11.04
2023-04-17T19:03:23.485Z,11.00
2023-04-17T19:07:26.064Z,10.97
2023-04-17T19:11:28.979Z,11.11
2023-04-17T19:15:31.099Z,11.03
2023-04-17T19:19:33.139Z,10.95
2023-04-17T19:23:36.953Z,10.91
2023-04-17T19:27:39.168Z,10.85
2023-04-17T19:31:41.539Z,10.73
2023-04-17T19:35:44.609Z,10.78
2023-04-17T19:39:46.648Z,10.61
2023-04-17T19:43:50.815Z,10.67
2023-04-17T19:47:56.965Z,10.77
2023-04-17T19:52:00.896Z,10.73
2023-04-17T19:56:08.489Z,10.54
2023-04-17T20:00:12.049Z,10.57
2023-04-17T20:04:18.858Z,10.64
2023-04-17T20:08:21.281Z,10.54
2023-04-17T20:12:23.456Z,10.63
2023-04-17T20:16:25.532Z,10.45
2023-04-17T20:20:27.657Z,10.63
2023-04-17T20:24:29.647Z,10.52
2023-04-17T20:28:31.839Z,10.50
2023-04-17T20:32:33.832Z,10.41
2023-04-17T20:36:35.934Z,10.37
2023-04-17T20:40:38.089Z,10.54
2023-04-17T20:44:40.434Z,10.75
2023-04-17T20:48:42.787Z,10.50
2023-04-17T20:52:44.845Z,10.54
2023-04-17T20:56:47.263Z,10.45
2023-04-17T21:01:00.653Z,10.33
2023-04-17T21:05:06.255Z,10.34
2023-04-17T21:09:08.924Z,10.35
2023-04-17T21:13:10.981Z,10.30
2023-04-17T21:17:13.104Z,10.21
2023-04-17T21:21:15.046Z,10.33
2023-04-17T21:25:17.131Z,10.25
2023-04-17T21:29:19.202Z,10.58
2023-04-17T21:33:21.316Z,10.56
2023-04-17T21:37:23.261Z,10.34
2023-04-17T21:41:26.063Z,10.30
2023-04-17T21:45:28.021Z,10.34
2023-04-17T21:49:30.036Z,10.13
2023-04-17T21:53:36.466Z,9.96
2023-04-17T21:57:39.356Z,10.11
2023-04-17T22:01:41.366Z,10.06
2023-04-17T22:05:44.029Z,10.01
2023-04-17T22:09:46.014Z,9.67
2023-04-17T22:13:48.160Z,9.80
2023-04-17T22:17:50.640Z,9.73
2023-04-17T22:21:52.777Z,9.61
2023-04-17T22:25:54.683Z,9.51
2023-04-17T22:29:56.839Z,9.59
2023-04-17T22:33:59.160Z,9.61
2023-04-17T22:38:01.236Z,9.79
2023-04-17T22:42:03.281Z,9.67
2023-04-17T22:46:05.341Z,9.59
2023-04-17T22:50:08.168Z,9.51
2023-04-17T22:54:21.518Z,9.49
2023-04-17T22:58:24.935Z,9.23
2023-04-17T23:02:27.043Z,9.41
2023-04-17T23:06:29.143Z,9.48
2023-04-17T23:10:31.553Z,9.27
2023-04-17T23:14:33.805Z,9.21
2023-04-17T23:18:37.305Z,9.43
2023-04-17T23:22:39.321Z,9.20
2023-04-17T23:26:41.915Z,9.45
2023-04-17T23:30:43.914Z,9.27
2023-04-17T23:34:45.888Z,9.13
2023-04-17T23:38:47.903Z,9.33
2023-04-17T23:42:50.029Z,9.34
2023-04-17T23:46:52.044Z,9.36
2023-04-17T23:50:54.311Z,9.16
2023-04-17T23:54:56.673Z,9.31
2023-04-17T23:58:58.809Z,9.27
